createdAt,value
2023-05-05T00:02:42.520Z,4.47
2023-05-05T00:15:32.532Z,5.00
2023-05-05T00:21:37.188Z,4.85
2023-05-05T00:27:54.043Z,5.15
2023-05-05T00:33:58.634Z,4.68
2023-05-05T00:40:05.939Z,5.60
2023-05-05T00:46:27.924Z,5.22
2023-05-05T00:52:57.095Z,5.40
2023-05-05T00:59:07.810Z,5.95
2023-05-05T01:12:18.102Z,5.60
2023-05-05T01:19:14.438Z,5.28
2023-05-05T01:25:47.404Z,5.38
2023-05-05T01:31:53.636Z,5.50
2023-05-05T01:38:14.919Z,6.30
2023-05-05T01:44:24.214Z,5.53
2023-05-05T01:50:40.618Z,5.43
2023-05-05T02:03:24.837Z,5.65
2023-05-05T02:09:31.081Z,6.25
2023-05-05T02:15:35.825Z,6.00
2023-05-05T02:21:38.761Z,6.10
2023-05-05T02:27:44.322Z,7.30
2023-05-05T02:33:49.468Z,6.90
2023-05-05T02:40:00.103Z,6.82
2023-05-05T02:46:04.333Z,6.75
2023-05-05T02:52:07.685Z,7.07
2023-05-05T02:58:28.310Z,6.80
2023-05-05T03:04:37.215Z,7.70
2023-05-05T03:11:14.284Z,7.78
2023-05-05T03:17:18.326Z,6.60
2023-05-05T03:23:22.749Z,6.38
2023-05-05T03:29:30.225Z,6.43
2023-05-05T03:35:33.151Z,6.95
2023-05-05T03:41:35.245Z,6.72
2023-05-05T03:47:38.584Z,6.60
2023-05-05T03:53:40.954Z,6.30
2023-05-05T03:59:43.992Z,7.25
2023-05-05T04:05:45.909Z,6.28
2023-05-05T04:11:47.801Z,7.65
2023-05-05T04:17:50.031Z,7.78
2023-05-05T04:23:52.950Z,7.20
2023-05-05T04:29:57.271Z,8.15
2023-05-05T04:35:59.855Z,7.90
2023-05-05T04:42:02.591Z,7.55
2023-05-05T04:48:05.723Z,7.10
2023-05-05T04:54:07.831Z,7.50
2023-05-05T05:00:10.496Z,6.97
2023-05-05T05:06:12.937Z,5.97
2023-05-05T05:12:14.757Z,6.53
2023-05-05T05:18:16.863Z,6.07
2023-05-05T05:24:19.115Z,6.03
2023-05-05T05:30:21.757Z,6.63
2023-05-05T05:36:23.634Z,6.80
2023-05-05T05:42:25.913Z,6.18
2023-05-05T05:48:29.401Z,6.45
2023-05-05T05:54:34.560Z,6.47
2023-05-05T06:00:37.738Z,6.03
2023-05-05T06:06:43.246Z,5.45
2023-05-05T06:12:45.385Z,5.18
2023-05-05T06:18:47.311Z,5.55
2023-05-05T06:24:49.881Z,5.93
2023-05-05T06:30:52.449Z,6.32
2023-05-05T06:36:54.343Z,6.60
2023-05-05T06:42:56.422Z,5.65
2023-05-05T06:49:03.592Z,6.33
2023-05-05T06:55:06.003Z,5.25
2023-05-05T07:01:07.968Z,4.82
2023-05-05T07:07:09.949Z,5.57
2023-05-05T07:13:11.875Z,4.78
2023-05-05T07:19:13.764Z,4.68
2023-05-05T07:25:16.203Z,3.95
2023-05-05T07:31:22.133Z,4.80
2023-05-05T07:37:24.033Z,3.83
2023-05-05T07:43:25.818Z,4.50
2023-05-05T07:49:27.706Z,4.20
2023-05-05T07:55:29.520Z,4.60
2023-05-05T08:01:31.359Z,4.82
2023-05-05T08:07:33.430Z,4.38
2023-05-05T08:13:35.517Z,5.15
2023-05-05T08:19:37.568Z,4.78
2023-05-05T08:25:39.642Z,4.50
2023-05-05T08:31:41.675Z,4.70
2023-05-05T08:37:43.716Z,4.70
2023-05-05T08:43:57.286Z,4.40
2023-05-05T08:49:59.749Z,4.78
2023-05-05T08:56:04.121Z,4.50
2023-05-05T09:02:08.592Z,4.05
2023-05-05T09:08:11.725Z,4.22
2023-05-05T09:14:13.564Z,4.72
2023-05-05T09:20:15.594Z,4.35
2023-05-05T09:26:17.472Z,4.38
2023-05-05T09:32:19.633Z,4.70
2023-05-05T09:38:23.654Z,4.60
2023-05-05T09:44:43.752Z,4.50
2023-05-05T09:50:46.127Z,4.53
2023-05-05T09:56:48.012Z,4.78
2023-05-05T10:02:49.880Z,4.88
2023-05-05T10:09:01.540Z,4.50
2023-05-05T10:15:05.309Z,4.70
2023-05-05T10:21:08.704Z,5.03
2023-05-05T10:27:15.683Z,6.93
2023-05-05T10:39:29.952Z,7.28
2023-05-05T10:45:32.191Z,7.00
2023-05-05T10:51:46.979Z,7.63
2023-05-05T10:57:53.867Z,8.20
2023-05-05T11:04:24.040Z,8.63
2023-05-05T11:10:26.446Z,8.50
2023-05-05T11:16:47.481Z,8.70
2023-05-05T11:23:05.285Z,9.55
2023-05-05T11:29:07.364Z,7.57
2023-05-05T11:35:09.407Z,8.18
2023-05-05T11:41:34.159Z,6.85
2023-05-05T11:47:36.303Z,8.60
2023-05-05T11:53:42.897Z,7.57
2023-05-05T12:00:01.142Z,6.70
2023-05-05T12:06:07.265Z,7.75
2023-05-05T12:12:09.875Z,7.57
2023-05-05T12:18:21.489Z,7.45
2023-05-05T12:24:23.336Z,7.18
2023-05-05T12:30:25.176Z,6.85
2023-05-05T12:36:29.207Z,7.90
2023-05-05T12:42:37.657Z,7.72
2023-05-05T12:48:41.910Z,7.20
2023-05-05T12:54:58.468Z,8.32
2023-05-05T13:01:10.609Z,7.38
2023-05-05T13:07:16.823Z,7.68
2023-05-05T13:13:18.742Z,8.90
2023-05-05T13:19:20.647Z,8.75
2023-05-05T13:25:22.562Z,7.75
2023-05-05T13:31:24.363Z,8.90
2023-05-05T13:37:26.197Z,7.57
2023-05-05T13:43:28.011Z,8.13
2023-05-05T13:49:30.135Z,8.05
2023-05-05T13:55:32.012Z,9.10
2023-05-05T14:01:33.962Z,7.78
2023-05-05T14:07:36.282Z,7.50
2023-05-05T14:13:38.094Z,8.93
2023-05-05T14:19:39.925Z,8.10
2023-05-05T14:25:41.782Z,10.20
2023-05-05T14:31:43.612Z,10.52
2023-05-05T14:37:45.422Z,10.50
2023-05-05T14:43:47.286Z,10.73
2023-05-05T14:58:04.756Z,13.07
2023-05-05T15:04:07.573Z,11.40
2023-05-05T15:10:09.848Z,11.80
2023-05-05T15:16:12.565Z,11.77
2023-05-05T15:22:14.413Z,10.82
2023-05-05T15:28:17.239Z,12.60
2023-05-05T15:34:18.960Z,12.30
2023-05-05T15:40:20.765Z,11.95
2023-05-05T15:46:22.931Z,12.20
2023-05-05T15:52:24.739Z,12.60
2023-05-05T15:58:26.530Z,15.18
2023-05-05T16:04:28.264Z,15.80
2023-05-05T16:10:29.990Z,16.33
2023-05-05T16:16:31.861Z,16.52
2023-05-05T16:22:33.660Z,17.77
2023-05-05T16:28:35.505Z,18.55
2023-05-05T16:34:37.256Z,19.73
2023-05-05T16:40:39.299Z,16.98
2023-05-05T16:46:41.193Z,12.70
2023-05-05T16:52:43.000Z,11.27
2023-05-05T16:58:44.868Z,11.48
2023-05-05T17:04:46.640Z,10.57
2023-05-05T17:10:48.533Z,9.00
2023-05-05T17:16:51.171Z,8.68
2023-05-05T17:22:53.006Z,9.07
2023-05-05T17:28:54.765Z,7.28
2023-05-05T17:34:56.549Z,24.92
2023-05-05T17:40:58.292Z,11.95
2023-05-05T17:47:00.140Z,14.88
2023-05-05T17:53:01.917Z,11.48
2023-05-05T17:59:03.887Z,13.27
2023-05-05T18:05:06.062Z,13.82
2023-05-05T18:11:08.396Z,13.38
2023-05-05T18:17:10.193Z,14.07
2023-05-05T18:23:12.827Z,13.93
2023-05-05T18:29:16.047Z,15.48
2023-05-05T18:35:17.969Z,12.95
2023-05-05T18:41:19.757Z,13.13
2023-05-05T18:47:21.706Z,14.95
2023-05-05T18:53:23.444Z,13.77
2023-05-05T18:59:25.341Z,12.35
2023-05-05T19:05:27.578Z,12.35
2023-05-05T19:11:29.333Z,12.48
2023-05-05T19:17:31.164Z,12.45
2023-05-05T19:23:33.414Z,12.32
2023-05-05T19:29:35.326Z,11.77
2023-05-05T19:35:37.070Z,11.90
2023-05-05T19:41:38.917Z,12.40
2023-05-05T19:47:40.892Z,12.15
2023-05-05T19:53:42.974Z,11.60
2023-05-05T19:59:44.774Z,11.93
2023-05-05T20:05:46.521Z,10.98
2023-05-05T20:11:48.243Z,11.23
2023-05-05T20:17:50.204Z,11.80
2023-05-05T20:23:54.487Z,15.45
2023-05-05T20:29:56.622Z,16.80
2023-05-05T20:35:58.447Z,16.35
2023-05-05T20:42:00.318Z,21.48
2023-05-05T20:48:02.250Z,31.08
2023-05-05T20:54:04.751Z,28.75
2023-05-05T21:00:12.155Z,12.18
2023-05-05T21:06:14.507Z,9.25
2023-05-05T21:12:16.318Z,9.32
2023-05-05T21:18:18.087Z,8.95
2023-05-05T21:24:19.841Z,10.63
2023-05-05T21:30:23.487Z,10.13
2023-05-05T21:36:25.393Z,10.80
2023-05-05T21:42:29.606Z,13.00
2023-05-05T21:48:31.772Z,16.67
2023-05-05T21:54:33.604Z,17.00
2023-05-05T22:00:35.586Z,15.70
2023-05-05T22:06:37.501Z,15.90
2023-05-05T22:12:39.665Z,16.08
2023-05-05T22:18:41.463Z,16.05
2023-05-05T22:24:46.165Z,19.60
2023-05-05T22:30:48.027Z,23.73
2023-05-05T22:36:52.426Z,26.90
2023-05-05T22:42:54.376Z,26.63
2023-05-05T22:48:56.555Z,22.20
2023-05-05T22:54:58.360Z,22.05
2023-05-05T23:01:00.419Z,22.08
2023-05-05T23:07:02.476Z,19.95
2023-05-05T23:13:04.453Z,16.73
2023-05-05T23:19:06.388Z,18.65
2023-05-05T23:25:08.880Z,14.65
2023-05-05T23:31:10.897Z,13.27
2023-05-05T23:37:14.184Z,11.55
2023-05-05T23:43:16.289Z,12.48
2023-05-05T23:49:18.124Z,12.23
2023-05-05T23:55:24.150Z,13.25
